Time;durP1;ratioP1;P1;durP2;ratioP2;P2;SDS_P1;SDS_P2;PMS_P1;PMS_P2;Temp;Humidity;BMP_temperature;BMP_pressure;BME280_temperature;BME280_humidity;BME280_pressure;Samples;Min_cycle;Max_cycle;Signal;HPM_P1;HPM_P2
2023/10/08 00:02:27;;;;;;;6.93;4.60;;;13.40;99.90;;;;;;4949745;28;20169;-36
2023/10/08 00:04:57;;;;;;;8.07;5.00;;;13.40;99.90;;;;;;4937288;29;20201;-37
2023/10/08 00:07:27;;;;;;;7.43;4.47;;;13.30;99.90;;;;;;4913632;29;20321;-38
2023/10/08 00:09:53;;;;;;;9.00;4.57;;;13.30;99.90;;;;;;4936115;29;20216;-38
2023/10/08 00:12:20;;;;;;;9.17;5.10;;;13.30;99.90;;;;;;4931353;29;20209;-41
2023/10/08 00:14:53;;;;;;;6.57;4.43;;;13.20;99.90;;;;;;4902590;29;20221;-37
2023/10/08 00:17:19;;;;;;;6.37;4.37;;;13.20;99.90;;;;;;4920274;29;20178;-36
2023/10/08 00:19:52;;;;;;;8.57;4.70;;;13.20;99.90;;;;;;4919068;29;20649;-41
2023/10/08 00:22:19;;;;;;;9.47;5.10;;;13.20;99.90;;;;;;4930845;29;20205;-41
2023/10/08 00:24:46;;;;;;;8.63;4.50;;;13.10;99.90;;;;;;4906307;29;20218;-40
2023/10/08 00:27:14;;;;;;;8.20;4.80;;;13.10;99.90;;;;;;4931545;29;20272;-41
2023/10/08 00:29:43;;;;;;;8.30;5.13;;;13.10;99.90;;;;;;4921179;29;20189;-38
2023/10/08 00:32:12;;;;;;;8.03;5.00;;;13.10;99.90;;;;;;4921188;29;20280;-42
2023/10/08 00:34:42;;;;;;;8.23;4.93;;;13.10;99.90;;;;;;4934052;29;20210;-37
2023/10/08 00:37:10;;;;;;;8.03;5.07;;;13.00;99.90;;;;;;4937383;29;20203;-41
2023/10/08 00:39:39;;;;;;;8.70;4.50;;;13.10;99.90;;;;;;4922206;29;20240;-40
2023/10/08 00:42:07;;;;;;;8.03;4.87;;;13.00;99.90;;;;;;4924668;29;20182;-41
2023/10/08 00:44:51;;;;;;;7.77;5.33;;;13.00;99.90;;;;;;4902844;29;20229;-38
2023/10/08 00:47:20;;;;;;;11.37;5.60;;;13.00;99.90;;;;;;4925242;29;20256;-41
2023/10/08 00:50:04;;;;;;;8.27;5.20;;;12.80;99.90;;;;;;4906808;29;20177;-41
2023/10/08 00:52:38;;;;;;;10.50;4.93;;;12.80;99.90;;;;;;4936835;29;20185;-42
2023/10/08 00:55:09;;;;;;;8.17;4.40;;;12.80;99.90;;;;;;4932141;29;20209;-39
2023/10/08 00:57:36;;;;;;;8.60;5.07;;;12.80;99.90;;;;;;4932478;29;20177;-40
2023/10/08 01:00:15;;;;;;;7.60;4.90;;;12.80;99.90;;;;;;4936564;29;20273;-41
2023/10/08 01:02:49;;;;;;;9.03;4.20;;;12.70;99.90;;;;;;4930393;29;20226;-41
2023/10/08 01:05:24;;;;;;;10.83;4.90;;;12.80;99.90;;;;;;4940947;29;20205;-38
2023/10/08 01:07:55;;;;;;;8.53;4.80;;;12.80;99.90;;;;;;4920789;29;20255;-41
2023/10/08 01:10:24;;;;;;;10.63;4.80;;;12.80;99.90;;;;;;4908223;29;20663;-38
2023/10/08 01:13:03;;;;;;;6.97;4.30;;;12.80;99.90;;;;;;4910668;29;20272;-41
2023/10/08 01:15:30;;;;;;;9.23;4.33;;;12.90;99.90;;;;;;4912268;29;20194;-41
2023/10/08 01:18:15;;;;;;;9.17;4.13;;;12.90;99.90;;;;;;4915361;29;20183;-39
2023/10/08 01:23:13;;;;;;;6.87;3.87;;;13.00;99.90;;;;;;4968814;28;20204;-41
2023/10/08 01:25:41;;;;;;;7.50;4.20;;;13.00;99.90;;;;;;4935650;29;20263;-35
2023/10/08 01:28:29;;;;;;;9.13;4.03;;;13.10;99.90;;;;;;4915811;29;20241;-34
2023/10/08 01:31:23;;;;;;;9.23;4.27;;;13.10;99.90;;;;;;4935956;29;20276;-42
2023/10/08 01:33:56;;;;;;;7.40;3.80;;;13.20;99.90;;;;;;4913018;29;20225;-37
2023/10/08 01:36:24;;;;;;;10.70;4.40;;;13.20;99.90;;;;;;4918822;29;20203;-41
2023/10/08 01:38:49;;;;;;;10.70;3.63;;;13.20;99.90;;;;;;4941664;28;20181;-36
2023/10/08 01:41:18;;;;;;;8.30;3.83;;;13.30;99.90;;;;;;4928526;29;20188;-40
2023/10/08 01:43:45;;;;;;;6.47;3.37;;;13.30;99.90;;;;;;4924870;29;20185;-42
2023/10/08 01:46:12;;;;;;;10.00;4.07;;;13.30;99.90;;;;;;4905099;29;20210;-37
2023/10/08 01:48:41;;;;;;;9.37;3.87;;;13.30;99.90;;;;;;4952397;28;20181;-39
2023/10/08 01:51:11;;;;;;;7.30;4.07;;;13.40;99.90;;;;;;4936750;29;20301;-40
2023/10/08 01:53:41;;;;;;;7.13;3.57;;;13.40;99.90;;;;;;4931642;29;20209;-34
2023/10/08 01:56:07;;;;;;;5.97;3.70;;;13.50;99.90;;;;;;4929148;29;20237;-37
2023/10/08 01:58:34;;;;;;;8.17;3.67;;;13.50;99.90;;;;;;4931720;29;20178;-41
2023/10/08 02:01:00;;;;;;;8.47;3.60;;;13.50;99.90;;;;;;4919151;29;20179;-38
2023/10/08 02:03:29;;;;;;;9.03;4.03;;;13.50;99.90;;;;;;4927675;29;20184;-39
2023/10/08 02:05:59;;;;;;;6.30;3.60;;;13.60;99.90;;;;;;4929106;29;20205;-41
2023/10/08 02:08:26;;;;;;;6.03;3.37;;;13.60;99.90;;;;;;4929250;29;20188;-38
2023/10/08 02:10:52;;;;;;;7.40;3.40;;;13.60;99.90;;;;;;4928753;29;20178;-41
2023/10/08 02:13:18;;;;;;;7.87;3.97;;;13.60;99.90;;;;;;4917026;29;20234;-41
2023/10/08 02:15:47;;;;;;;6.57;3.67;;;13.50;99.90;;;;;;4930899;29;20236;-36
2023/10/08 02:18:13;;;;;;;10.57;3.83;;;13.50;99.90;;;;;;4928135;29;20173;-41
2023/10/08 02:20:40;;;;;;;7.07;3.70;;;13.50;99.90;;;;;;4935961;29;20248;-39
2023/10/08 02:23:06;;;;;;;8.97;3.57;;;13.50;99.90;;;;;;4935796;29;20192;-42
2023/10/08 02:25:34;;;;;;;7.13;3.77;;;13.50;99.90;;;;;;4926933;29;20210;-39
2023/10/08 02:28:03;;;;;;;7.13;3.40;;;13.40;99.90;;;;;;4925345;29;20251;-41
2023/10/08 02:30:29;;;;;;;7.30;3.40;;;13.40;99.90;;;;;;4935262;29;20188;-41
2023/10/08 02:32:55;;;;;;;8.50;3.80;;;13.40;99.90;;;;;;4935304;29;20185;-39
2023/10/08 02:35:22;;;;;;;10.67;3.47;;;13.40;99.90;;;;;;4926923;29;20193;-42
2023/10/08 02:37:48;;;;;;;8.40;3.90;;;13.40;99.90;;;;;;4927830;29;20201;-40
2023/10/08 02:40:26;;;;;;;10.93;3.87;;;13.40;99.90;;;;;;4927464;29;20192;-39
2023/10/08 02:42:58;;;;;;;7.10;3.93;;;13.40;99.90;;;;;;4919767;29;20181;-39
2023/10/08 02:45:30;;;;;;;7.27;3.53;;;13.40;99.90;;;;;;4926130;29;20224;-38
2023/10/08 02:47:57;;;;;;;5.70;3.80;;;13.40;99.90;;;;;;4935327;29;20177;-40
2023/10/08 02:50:23;;;;;;;7.47;3.50;;;13.40;99.90;;;;;;4935994;29;20189;-42
2023/10/08 02:52:49;;;;;;;9.17;3.83;;;13.40;99.90;;;;;;4929046;29;20173;-41
2023/10/08 02:55:34;;;;;;;8.40;3.93;;;13.40;99.90;;;;;;4935369;29;20228;-40
2023/10/08 02:58:02;;;;;;;7.80;3.90;;;13.40;99.90;;;;;;4919312;29;20174;-36
2023/10/08 03:00:34;;;;;;;6.27;3.57;;;13.40;99.90;;;;;;4951703;28;20268;-39
2023/10/08 03:03:09;;;;;;;8.87;3.83;;;13.40;99.90;;;;;;4932110;29;20252;-40
2023/10/08 03:05:35;;;;;;;8.17;3.90;;;13.40;99.90;;;;;;4922280;29;20248;-40
2023/10/08 03:08:10;;;;;;;6.13;3.33;;;13.40;99.90;;;;;;4927438;29;20188;-40
2023/10/08 03:10:41;;;;;;;7.57;3.47;;;13.40;99.90;;;;;;4912448;29;20183;-39
2023/10/08 03:13:10;;;;;;;9.17;3.70;;;13.30;99.90;;;;;;4935731;29;20253;-38
2023/10/08 03:15:40;;;;;;;12.43;4.17;;;13.30;99.90;;;;;;4911693;29;20193;-40
2023/10/08 03:18:16;;;;;;;7.37;3.60;;;13.30;99.90;;;;;;4926883;29;20189;-36
2023/10/08 03:20:43;;;;;;;11.97;3.80;;;13.30;99.90;;;;;;4950522;28;20185;-38
2023/10/08 03:23:23;;;;;;;6.93;3.47;;;13.30;99.90;;;;;;4935017;29;20193;-39
2023/10/08 03:25:59;;;;;;;5.80;3.30;;;13.30;99.90;;;;;;4919407;29;20210;-40
2023/10/08 03:28:27;;;;;;;7.40;3.70;;;13.30;99.90;;;;;;4933207;29;20189;-41
2023/10/08 03:31:14;;;;;;;6.30;3.70;;;13.30;99.90;;;;;;4963044;28;20200;-38
2023/10/08 03:33:40;;;;;;;10.40;3.53;;;13.30;99.90;;;;;;4930100;29;20198;-40
2023/10/08 03:36:33;;;;;;;8.33;3.90;;;13.30;99.90;;;;;;4926533;29;20197;-34
2023/10/08 03:39:09;;;;;;;8.07;3.60;;;13.40;99.90;;;;;;4927463;29;20181;-37
2023/10/08 03:41:39;;;;;;;8.43;3.80;;;13.40;99.90;;;;;;4946148;29;20204;-40
2023/10/08 03:44:12;;;;;;;8.83;3.93;;;13.40;99.90;;;;;;4951037;28;20221;-40
2023/10/08 03:46:40;;;;;;;9.77;3.67;;;13.40;99.90;;;;;;4916449;29;20185;-39
2023/10/08 03:49:14;;;;;;;7.90;3.43;;;13.40;99.90;;;;;;4931045;29;20177;-40
2023/10/08 03:51:41;;;;;;;11.57;4.10;;;13.30;99.90;;;;;;4925192;29;20174;-39
2023/10/08 03:56:36;;;;;;;8.60;4.10;;;13.30;99.90;;;;;;4934308;29;20623;-38
2023/10/08 03:59:20;;;;;;;8.77;4.07;;;13.20;99.90;;;;;;4927470;29;20196;-39
2023/10/08 04:01:54;;;;;;;9.10;3.67;;;13.20;99.90;;;;;;4927489;29;20189;-37
2023/10/08 04:04:24;;;;;;;8.50;3.63;;;13.10;99.90;;;;;;4933142;29;20223;-40
2023/10/08 04:06:54;;;;;;;8.37;3.73;;;13.10;99.90;;;;;;4922462;29;20287;-40
2023/10/08 04:11:53;;;;;;;7.30;3.83;;;13.00;99.90;;;;;;4959890;28;20181;-41
2023/10/08 04:14:20;;;;;;;7.97;3.50;;;12.90;99.90;;;;;;4919089;29;20217;-40
2023/10/08 04:16:51;;;;;;;6.63;3.90;;;12.80;99.90;;;;;;4943111;29;20174;-40
2023/10/08 04:19:28;;;;;;;7.50;4.07;;;12.80;99.90;;;;;;4928595;29;20185;-41
2023/10/08 04:21:54;;;;;;;8.60;3.90;;;12.70;99.90;;;;;;4930343;29;20181;-41
2023/10/08 04:24:29;;;;;;;8.87;3.73;;;12.60;99.90;;;;;;4929951;29;20303;-41
2023/10/08 04:26:57;;;;;;;7.07;4.17;;;12.60;99.90;;;;;;4954078;29;20188;-41
2023/10/08 04:29:23;;;;;;;7.77;4.27;;;12.50;99.90;;;;;;4952958;28;20189;-40
2023/10/08 04:32:00;;;;;;;8.83;4.10;;;12.50;99.90;;;;;;4942507;29;20276;-41
2023/10/08 04:34:28;;;;;;;10.03;3.80;;;12.40;99.90;;;;;;4962523;28;20279;-41
2023/10/08 04:36:54;;;;;;;7.70;4.00;;;12.30;99.90;;;;;;4930860;29;20177;-39
2023/10/08 04:39:31;;;;;;;9.07;4.67;;;12.10;99.90;;;;;;4945996;29;20188;-38
2023/10/08 04:42:10;;;;;;;8.17;4.40;;;12.10;99.90;;;;;;4918347;29;20181;-38
2023/10/08 04:44:40;;;;;;;7.90;4.30;;;12.00;99.90;;;;;;4918281;29;20223;-39
2023/10/08 04:47:31;;;;;;;8.10;4.17;;;12.00;99.90;;;;;;4926111;29;20193;-39
2023/10/08 04:49:53;;;;;;;6.53;3.83;;;11.90;99.90;;;;;;4927105;29;20191;-39
2023/10/08 04:52:19;;;;;;;7.97;4.50;;;12.00;99.90;;;;;;4929876;29;20188;-40
2023/10/08 04:54:51;;;;;;;8.60;4.00;;;12.00;99.90;;;;;;4935627;29;20224;-39
2023/10/08 04:57:21;;;;;;;8.20;4.33;;;12.00;99.90;;;;;;4946960;29;20185;-39
2023/10/08 04:59:50;;;;;;;8.40;3.87;;;12.00;99.90;;;;;;4932424;29;20280;-39
2023/10/08 05:02:36;;;;;;;9.77;4.33;;;11.90;99.90;;;;;;4927632;29;20185;-39
2023/10/08 05:05:21;;;;;;;9.60;4.70;;;11.90;99.90;;;;;;4937356;29;20275;-38
2023/10/08 05:13:01;;;;;;;13.00;5.83;;;11.70;99.90;;;;;;4927437;29;20186;-39
2023/10/08 05:15:36;;;;;;;10.17;4.60;;;11.60;99.90;;;;;;4902603;29;20211;-39
2023/10/08 05:29:00;;;;;;;25.83;9.43;;;11.40;99.90;;;;;;4948796;29;20183;-39
2023/10/08 05:34:18;;;;;;;56.07;20.17;;;11.30;99.90;;;;;;4941044;29;20203;-39
2023/10/08 05:37:00;;;;;;;20.77;8.33;;;11.10;99.90;;;;;;4936145;29;20187;-38
2023/10/08 05:39:40;;;;;;;9.27;4.47;;;11.00;99.90;;;;;;4936181;29;20182;-39
2023/10/08 05:55:26;;;;;;;7.97;4.37;;;11.00;99.90;;;;;;4931837;29;20214;-38
2023/10/08 05:58:13;;;;;;;5.87;3.60;;;11.00;99.90;;;;;;4931037;29;20179;-38
2023/10/08 06:00:46;;;;;;;8.93;4.47;;;11.10;99.90;;;;;;4924226;29;20234;-39
2023/10/08 06:03:32;;;;;;;6.73;4.03;;;11.10;99.90;;;;;;4924357;29;20190;-38
2023/10/08 06:06:22;;;;;;;5.73;4.03;;;11.10;99.90;;;;;;4935215;29;20222;-36
2023/10/08 06:09:21;;;;;;;10.30;4.23;;;11.10;99.90;;;;;;4913005;29;20189;-38
2023/10/08 06:12:09;;;;;;;8.33;4.00;;;11.20;99.90;;;;;;4911066;29;20175;-39
2023/10/08 06:15:06;;;;;;;8.90;4.33;;;11.30;99.90;;;;;;4931121;29;20219;-37
2023/10/08 06:20:24;;;;;;;7.37;3.80;;;11.40;99.90;;;;;;4931941;29;20191;-39
2023/10/08 06:22:52;;;;;;;9.90;4.40;;;11.40;99.90;;;;;;4882526;29;1254175;-40
2023/10/08 06:25:23;;;;;;;7.33;4.40;;;11.50;99.90;;;;;;4932974;29;20219;-38
2023/10/08 06:27:57;;;;;;;7.40;4.10;;;11.50;99.90;;;;;;4936289;29;20633;-37
2023/10/08 06:30:28;;;;;;;8.40;4.00;;;11.50;99.90;;;;;;4927442;29;20188;-39
2023/10/08 06:32:56;;;;;;;8.97;4.20;;;11.60;99.90;;;;;;4927932;29;20196;-39
2023/10/08 06:35:25;;;;;;;10.07;4.67;;;11.60;99.90;;;;;;4920146;29;20207;-39
2023/10/08 06:37:54;;;;;;;10.57;4.60;;;11.60;99.90;;;;;;4931565;29;20188;-39
2023/10/08 06:40:40;;;;;;;7.03;3.97;;;11.70;99.90;;;;;;4927529;29;20188;-40
2023/10/08 06:43:16;;;;;;;7.67;4.57;;;11.70;99.90;;;;;;4921621;29;20215;-39
2023/10/08 06:45:44;;;;;;;13.07;5.77;;;11.70;99.90;;;;;;4959539;28;20212;-39
2023/10/08 06:48:17;;;;;;;9.50;4.93;;;11.80;99.90;;;;;;4920375;29;20187;-39
2023/10/08 06:50:45;;;;;;;8.73;5.00;;;11.80;99.90;;;;;;4937324;29;20190;-39
2023/10/08 06:53:13;;;;;;;13.07;5.77;;;11.90;99.90;;;;;;4946596;28;20212;-37
2023/10/08 06:55:43;;;;;;;10.53;5.33;;;11.90;99.90;;;;;;4935260;29;20209;-39
2023/10/08 06:58:11;;;;;;;10.77;4.70;;;12.00;99.90;;;;;;4926868;29;20213;-39
2023/10/08 07:00:52;;;;;;;8.70;4.40;;;12.00;99.90;;;;;;4926354;29;20180;-40
2023/10/08 07:03:18;;;;;;;9.67;4.40;;;12.10;99.90;;;;;;4950278;29;20219;-39
2023/10/08 07:05:59;;;;;;;8.00;4.53;;;12.10;99.90;;;;;;4951380;28;20239;-38
2023/10/08 07:08:33;;;;;;;10.37;4.60;;;12.20;99.90;;;;;;4914669;29;20192;-38
2023/10/08 07:11:11;;;;;;;9.97;5.23;;;12.20;99.90;;;;;;4953701;28;20187;-39
2023/10/08 07:13:39;;;;;;;10.80;5.37;;;12.30;99.90;;;;;;4906130;29;20223;-39
2023/10/08 07:16:06;;;;;;;9.83;6.03;;;12.40;99.90;;;;;;4928654;29;20201;-39
2023/10/08 07:18:33;;;;;;;10.07;5.90;;;12.60;99.90;;;;;;4933519;29;20189;-39
2023/10/08 07:21:04;;;;;;;10.70;5.53;;;12.80;99.90;;;;;;4938973;29;20188;-39
2023/10/08 07:23:34;;;;;;;8.70;5.80;;;13.00;99.90;;;;;;4919236;29;20265;-39
2023/10/08 07:26:17;;;;;;;9.77;5.83;;;13.10;99.90;;;;;;4938982;29;20205;-40
2023/10/08 07:28:46;;;;;;;6.83;5.00;;;13.30;99.90;;;;;;4927840;29;20182;-40
2023/10/08 07:31:16;;;;;;;7.30;4.33;;;13.40;99.90;;;;;;4942961;28;20200;-38
2023/10/08 07:33:47;;;;;;;9.90;3.77;;;13.60;99.90;;;;;;4930890;29;20279;-40
2023/10/08 07:36:18;;;;;;;13.97;5.30;;;13.80;99.90;;;;;;4930960;29;20293;-39
2023/10/08 07:38:44;;;;;;;13.37;4.90;;;14.00;99.90;;;;;;4932015;29;20237;-38
2023/10/08 07:41:12;;;;;;;7.23;4.17;;;14.00;99.90;;;;;;4922978;29;20185;-37
2023/10/08 07:43:42;;;;;;;6.20;4.03;;;14.00;99.90;;;;;;4938087;29;20197;-39
2023/10/08 07:46:09;;;;;;;7.10;4.00;;;14.10;99.90;;;;;;4929351;29;20220;-41
2023/10/08 07:48:35;;;;;;;6.70;4.30;;;14.20;99.90;;;;;;4930901;29;20186;-38
2023/10/08 07:51:02;;;;;;;8.70;4.23;;;14.30;99.90;;;;;;4920925;29;20182;-39
2023/10/08 07:53:46;;;;;;;7.23;3.80;;;14.50;99.90;;;;;;4946516;29;20205;-39
2023/10/08 07:56:11;;;;;;;6.27;3.67;;;14.70;99.90;;;;;;4933726;29;20208;-40
2023/10/08 07:58:38;;;;;;;10.83;4.63;;;14.90;99.90;;;;;;4936262;29;20189;-40
2023/10/08 08:01:08;;;;;;;12.03;4.67;;;15.10;99.90;;;;;;4919496;29;20182;-38
2023/10/08 08:03:36;;;;;;;12.00;4.97;;;15.50;99.90;;;;;;4934896;29;20266;-41
2023/10/08 08:06:09;;;;;;;10.53;5.03;;;15.70;99.90;;;;;;4932186;29;20201;-39
2023/10/08 08:08:36;;;;;;;10.33;3.87;;;15.90;99.90;;;;;;4934632;29;20252;-40
2023/10/08 08:11:05;;;;;;;9.53;3.93;;;16.10;99.90;;;;;;4930142;29;20190;-38
2023/10/08 08:13:33;;;;;;;11.90;4.63;;;16.30;99.90;;;;;;4920257;29;20233;-40
2023/10/08 08:16:09;;;;;;;11.77;4.10;;;16.50;99.90;;;;;;4920909;29;20193;-39
2023/10/08 08:18:38;;;;;;;7.90;3.43;;;16.60;99.90;;;;;;4922959;29;20209;-39
2023/10/08 08:21:13;;;;;;;7.33;4.43;;;16.60;99.90;;;;;;4920933;29;20177;-37
2023/10/08 08:23:40;;;;;;;8.83;3.90;;;16.70;99.90;;;;;;4934146;29;20294;-39
2023/10/08 08:26:11;;;;;;;10.83;4.50;;;16.70;99.90;;;;;;4923687;29;20298;-35
2023/10/08 08:28:38;;;;;;;9.07;4.07;;;16.70;99.90;;;;;;4951981;29;20189;-39
2023/10/08 08:31:13;;;;;;;11.52;4.32;;;16.80;99.90;;;;;;4935073;29;20193;-41
2023/10/08 08:33:53;;;;;;;10.85;3.92;;;16.80;99.90;;;;;;4952363;28;20210;-38
2023/10/08 08:36:24;;;;;;;12.13;4.30;;;16.90;99.90;;;;;;4923929;29;20209;-40
2023/10/08 08:38:51;;;;;;;8.70;4.15;;;16.90;99.90;;;;;;4939516;29;20188;-39
2023/10/08 08:41:22;;;;;;;7.60;3.85;;;16.90;99.90;;;;;;4923696;29;20193;-38
2023/10/08 08:43:58;;;;;;;11.57;4.45;;;16.90;99.90;;;;;;4923718;29;20213;-42
2023/10/08 08:46:37;;;;;;;7.85;3.75;;;16.90;99.90;;;;;;4945046;28;20208;-40
2023/10/08 08:49:07;;;;;;;8.18;3.58;;;16.90;99.90;;;;;;4927858;29;20194;-38
2023/10/08 08:51:37;;;;;;;7.78;3.30;;;16.90;99.90;;;;;;4948644;29;20237;-42
2023/10/08 08:54:08;;;;;;;6.32;3.67;;;17.00;99.90;;;;;;4965738;28;20214;-38
2023/10/08 08:56:38;;;;;;;5.70;3.30;;;17.10;99.90;;;;;;4950093;29;20248;-40
2023/10/08 08:59:11;;;;;;;8.68;3.70;;;17.20;99.90;;;;;;4901876;29;20217;-43
2023/10/08 09:01:41;;;;;;;7.28;3.90;;;17.50;99.90;;;;;;4926850;29;20185;-42
2023/10/08 09:04:08;;;;;;;8.88;3.50;;;17.70;99.90;;;;;;4908838;29;20206;-40
2023/10/08 09:06:37;;;;;;;8.77;3.28;;;18.00;99.90;;;;;;4930742;29;20182;-41
2023/10/08 09:09:23;;;;;;;9.27;3.22;;;18.20;99.90;;;;;;4934184;29;20244;-41
2023/10/08 09:11:51;;;;;;;7.90;2.60;;;18.50;99.90;;;;;;4912198;29;20254;-39
2023/10/08 09:14:21;;;;;;;9.30;3.40;;;18.90;99.90;;;;;;4933183;29;20206;-40
2023/10/08 09:16:47;;;;;;;6.25;3.20;;;19.20;99.90;;;;;;4938205;29;20266;-40
2023/10/08 09:19:18;;;;;;;9.40;3.30;;;19.40;99.90;;;;;;4924126;29;20265;-40
2023/10/08 09:21:59;;;;;;;6.55;2.97;;;19.60;99.90;;;;;;4922302;28;20201;-41
2023/10/08 09:24:25;;;;;;;5.97;3.00;;;19.80;99.90;;;;;;4926048;29;20221;-40
2023/10/08 09:26:55;;;;;;;8.10;3.03;;;20.00;99.90;;;;;;4930730;29;20320;-41
2023/10/08 09:29:22;;;;;;;7.95;3.22;;;20.20;99.90;;;;;;4931648;29;20189;-40
2023/10/08 09:31:55;;;;;;;5.80;3.40;;;20.40;99.90;;;;;;4906570;29;20276;-37
2023/10/08 09:34:26;;;;;;;6.28;3.30;;;20.60;99.90;;;;;;4907155;29;20232;-40
2023/10/08 09:36:53;;;;;;;6.03;2.78;;;20.80;99.90;;;;;;4929665;29;20182;-40
2023/10/08 09:39:25;;;;;;;9.02;3.17;;;21.00;99.90;;;;;;4912147;29;20190;-41
2023/10/08 09:41:54;;;;;;;8.00;3.50;;;21.20;99.90;;;;;;4930965;29;20248;-42
2023/10/08 09:44:25;;;;;;;8.75;3.25;;;21.40;99.90;;;;;;4911729;29;20216;-41
2023/10/08 09:47:06;;;;;;;8.32;3.33;;;21.60;99.90;;;;;;4938711;29;20236;-41
2023/10/08 09:49:42;;;;;;;8.70;3.28;;;21.80;99.90;;;;;;4934218;29;20190;-42
2023/10/08 09:52:10;;;;;;;7.40;3.40;;;22.00;99.90;;;;;;4921815;29;20188;-39
2023/10/08 09:54:59;;;;;;;8.90;3.88;;;22.20;99.90;;;;;;4918158;29;20227;-41
2023/10/08 09:57:26;;;;;;;9.63;3.83;;;22.40;99.90;;;;;;4934978;29;20209;-41
2023/10/08 09:59:53;;;;;;;8.48;3.20;;;22.60;99.90;;;;;;4936059;29;20243;-41
2023/10/08 10:02:26;;;;;;;6.10;3.22;;;22.70;99.90;;;;;;4920148;29;20182;-40
2023/10/08 10:04:56;;;;;;;8.45;3.53;;;22.90;99.90;;;;;;4935988;29;20303;-40
2023/10/08 10:07:22;;;;;;;5.68;3.25;;;23.20;99.90;;;;;;4932672;29;20213;-42
2023/10/08 10:09:54;;;;;;;8.30;3.40;;;23.40;99.90;;;;;;4926935;29;20220;-42
2023/10/08 10:12:28;;;;;;;8.57;3.63;;;23.50;99.90;;;;;;4916032;29;20284;-42
2023/10/08 10:14:55;;;;;;;9.32;3.67;;;23.50;99.90;;;;;;4916542;29;20248;-43
2023/10/08 10:17:30;;;;;;;11.88;3.53;;;23.50;99.90;;;;;;4931676;28;20190;-42
2023/10/08 10:19:56;;;;;;;8.48;3.58;;;23.60;99.90;;;;;;4942791;28;20181;-43
2023/10/08 10:22:35;;;;;;;10.82;3.85;;;23.70;99.90;;;;;;4924346;29;20198;-44
2023/10/08 10:25:03;;;;;;;10.85;4.20;;;23.80;99.90;;;;;;4943778;28;20209;-43
2023/10/08 10:27:30;;;;;;;10.20;3.63;;;23.70;99.90;;;;;;4916665;29;20222;-37
2023/10/08 10:30:08;;;;;;;9.88;3.85;;;23.70;99.90;;;;;;4924203;29;20686;-41
2023/10/08 10:32:35;;;;;;;10.43;3.30;;;23.80;99.90;;;;;;4915413;29;20284;-44
2023/10/08 10:35:03;;;;;;;10.02;4.00;;;24.00;99.90;;;;;;4915668;29;20345;-39
2023/10/08 10:37:40;;;;;;;10.15;4.25;;;24.10;99.90;;;;;;4916734;29;20181;-40
2023/10/08 10:40:12;;;;;;;9.80;3.55;;;24.30;99.90;;;;;;4916258;29;20239;-39
2023/10/08 10:42:42;;;;;;;10.48;3.85;;;24.30;99.90;;;;;;4915851;29;20236;-42
2023/10/08 10:48:11;;;;;;;9.63;4.05;;;24.60;99.90;;;;;;4949993;28;20186;-40
2023/10/08 10:53:27;;;;;;;14.55;4.05;;;24.70;99.90;;;;;;4939557;29;22084;-39
2023/10/08 10:56:03;;;;;;;11.52;4.15;;;24.80;99.90;;;;;;4922266;29;20296;-40
2023/10/08 10:58:38;;;;;;;9.50;4.07;;;24.90;99.90;;;;;;4904156;29;20173;-42
2023/10/08 11:01:07;;;;;;;9.25;3.95;;;25.10;99.90;;;;;;4922806;29;20188;-43
2023/10/08 11:03:35;;;;;;;11.00;4.22;;;25.10;99.90;;;;;;4925078;29;20193;-39
2023/10/08 11:06:35;;;;;;;12.85;4.68;;;25.20;99.90;;;;;;4925500;29;20304;-41
2023/10/08 11:09:05;;;;;;;12.43;4.28;;;25.40;99.90;;;;;;4924343;29;20189;-42
2023/10/08 11:11:36;;;;;;;11.55;3.90;;;25.50;99.90;;;;;;4924551;29;20184;-40
2023/10/08 11:14:03;;;;;;;13.75;4.07;;;25.60;99.90;;;;;;4927915;29;20205;-41
2023/10/08 11:16:31;;;;;;;11.30;3.92;;;25.70;99.90;;;;;;4943093;29;20186;-41
2023/10/08 11:19:01;;;;;;;12.25;4.40;;;25.80;99.90;;;;;;4945734;28;20236;-42
2023/10/08 11:21:31;;;;;;;14.10;4.53;;;25.90;99.90;;;;;;4951119;28;20197;-40
2023/10/08 11:23:58;;;;;;;13.73;4.32;;;26.00;99.90;;;;;;4936413;29;20197;-41
2023/10/08 11:26:32;;;;;;;13.55;4.57;;;26.10;99.90;;;;;;4935060;29;20192;-38
2023/10/08 11:29:05;;;;;;;12.93;4.10;;;26.30;99.90;;;;;;4935083;29;20281;-41
2023/10/08 11:31:33;;;;;;;15.38;4.90;;;26.40;99.90;;;;;;4922057;29;20223;-42
2023/10/08 11:34:13;;;;;;;20.15;4.68;;;26.40;99.90;;;;;;4926061;29;20227;-42
2023/10/08 11:36:53;;;;;;;11.90;4.18;;;26.20;99.90;;;;;;4958902;28;20185;-41
2023/10/08 11:39:22;;;;;;;16.33;4.63;;;26.20;99.90;;;;;;4935586;29;20177;-41
2023/10/08 11:42:25;;;;;;;16.25;4.78;;;26.10;99.90;;;;;;4924279;29;20183;-42
2023/10/08 11:44:52;;;;;;;15.80;4.20;;;26.10;99.90;;;;;;4919974;29;20208;-42
2023/10/08 11:47:21;;;;;;;18.40;4.30;;;26.20;99.90;;;;;;4917460;29;20190;-40
2023/10/08 11:49:50;;;;;;;13.65;4.50;;;26.10;99.90;;;;;;4934299;29;20190;-41
2023/10/08 11:52:16;;;;;;;18.52;4.85;;;26.10;99.90;;;;;;4954852;28;20200;-41
2023/10/08 11:54:43;;;;;;;14.02;4.68;;;26.00;99.90;;;;;;4923922;29;20217;-42
2023/10/08 11:57:11;;;;;;;15.40;4.82;;;26.00;99.90;;;;;;4935562;28;20192;-41
2023/10/08 11:59:39;;;;;;;14.60;4.28;;;25.90;99.90;;;;;;4939718;29;20189;-41
2023/10/08 12:02:08;;;;;;;13.98;4.20;;;25.90;99.90;;;;;;4938998;29;20184;-42
2023/10/08 12:04:36;;;;;;;13.23;4.25;;;25.90;99.90;;;;;;4923104;29;20284;-40
2023/10/08 12:07:07;;;;;;;17.17;4.40;;;25.80;99.90;;;;;;4924797;29;20225;-42
2023/10/08 12:09:37;;;;;;;11.77;4.72;;;25.80;99.90;;;;;;4920728;29;20244;-40
2023/10/08 12:12:09;;;;;;;10.40;3.85;;;25.80;99.90;;;;;;4936825;29;20205;-42
2023/10/08 12:14:37;;;;;;;15.43;4.20;;;25.90;99.90;;;;;;4935591;29;20210;-43
2023/10/08 12:17:11;;;;;;;14.23;4.20;;;25.90;99.90;;;;;;4917692;29;20198;-43
2023/10/08 12:19:42;;;;;;;10.88;3.75;;;26.00;99.90;;;;;;4937032;29;20182;-43
2023/10/08 12:22:14;;;;;;;14.77;4.35;;;26.10;99.90;;;;;;4920821;29;20202;-42
2023/10/08 12:24:42;;;;;;;15.40;4.88;;;26.30;99.90;;;;;;4907248;29;20205;-39
2023/10/08 12:27:11;;;;;;;15.07;4.43;;;26.30;99.90;;;;;;4911843;29;20262;-42
2023/10/08 12:29:38;;;;;;;16.08;4.63;;;26.40;99.90;;;;;;4937424;29;20185;-40
2023/10/08 12:32:08;;;;;;;10.90;4.13;;;26.40;99.90;;;;;;4909616;29;20205;-43
2023/10/08 12:34:35;;;;;;;12.68;4.55;;;26.50;99.90;;;;;;4922292;29;20296;-43
2023/10/08 12:37:01;;;;;;;11.57;4.57;;;26.60;99.90;;;;;;4921429;29;20281;-43
2023/10/08 12:39:28;;;;;;;16.92;4.80;;;26.80;99.90;;;;;;4923514;29;20202;-43
2023/10/08 12:41:54;;;;;;;16.35;4.00;;;26.90;99.90;;;;;;4926527;29;20178;-42
2023/10/08 12:44:21;;;;;;;14.48;4.55;;;26.90;99.90;;;;;;4943831;29;20228;-42
2023/10/08 12:46:48;;;;;;;14.65;4.35;;;27.00;99.90;;;;;;4920384;29;20229;-40
2023/10/08 12:49:14;;;;;;;14.45;4.70;;;27.00;99.90;;;;;;4935507;29;20186;-41
2023/10/08 12:51:45;;;;;;;13.13;4.40;;;26.90;99.50;;;;;;4928334;29;20189;-41
2023/10/08 12:54:11;;;;;;;16.27;4.72;;;26.80;99.20;;;;;;4952920;29;20212;-42
2023/10/08 12:56:48;;;;;;;14.02;4.30;;;26.50;99.00;;;;;;4954434;28;20177;-41
2023/10/08 12:59:20;;;;;;;15.43;4.78;;;26.50;99.80;;;;;;4937369;29;20189;-42
2023/10/08 13:01:51;;;;;;;14.10;4.28;;;26.50;99.60;;;;;;4937127;29;20181;-42
2023/10/08 13:04:27;;;;;;;17.30;4.90;;;26.40;99.90;;;;;;4921194;29;20744;-42
2023/10/08 13:07:00;;;;;;;13.63;4.57;;;26.40;99.90;;;;;;4918804;29;20185;-42
2023/10/08 13:09:26;;;;;;;15.45;4.35;;;26.40;99.90;;;;;;4931156;28;20189;-42
2023/10/08 13:11:53;;;;;;;14.27;4.13;;;26.50;99.90;;;;;;4935411;29;20193;-42
2023/10/08 13:14:18;;;;;;;13.18;4.88;;;26.50;99.80;;;;;;4901954;29;20216;-42
2023/10/08 13:16:45;;;;;;;15.80;4.68;;;26.50;99.90;;;;;;4917228;29;20190;-42
2023/10/08 13:19:15;;;;;;;16.50;4.15;;;26.50;99.90;;;;;;4917663;29;20319;-42
2023/10/08 13:21:43;;;;;;;15.25;5.00;;;26.50;99.90;;;;;;4916750;29;20735;-42
2023/10/08 13:24:10;;;;;;;13.30;4.40;;;26.60;99.90;;;;;;4921499;29;20185;-41
2023/10/08 13:26:38;;;;;;;16.02;4.47;;;26.80;99.80;;;;;;4934435;29;20216;-40
2023/10/08 13:29:09;;;;;;;15.13;4.53;;;27.00;99.90;;;;;;4900818;29;20196;-42
2023/10/08 13:31:38;;;;;;;14.20;4.32;;;27.20;99.90;;;;;;4960392;28;20185;-42
2023/10/08 13:34:08;;;;;;;13.35;4.68;;;27.40;99.90;;;;;;4930229;29;20209;-43
2023/10/08 13:36:39;;;;;;;16.00;4.72;;;27.60;99.50;;;;;;4932976;29;20184;-42
2023/10/08 13:39:09;;;;;;;15.35;4.22;;;27.70;98.40;;;;;;4935378;29;20181;-41
2023/10/08 13:41:37;;;;;;;12.10;4.03;;;27.90;99.00;;;;;;4942011;29;20190;-40
2023/10/08 13:44:05;;;;;;;10.88;3.78;;;28.00;98.40;;;;;;4927968;29;20185;-42
2023/10/08 13:46:35;;;;;;;11.38;4.07;;;28.20;98.20;;;;;;4923136;29;20225;-42
2023/10/08 13:49:02;;;;;;;16.15;4.25;;;28.40;98.40;;;;;;4932595;29;20205;-44
2023/10/08 13:51:30;;;;;;;15.48;4.35;;;28.50;98.30;;;;;;4921901;29;20198;-42
2023/10/08 13:54:00;;;;;;;19.27;5.30;;;28.70;97.00;;;;;;4924782;29;20206;-42